Terminal Aerodrome Forecast
Issued by NWS

Current Version | Previous Version | Text Only | Print | Product List | Glossary On
Versions: 1 2 3 4 5 6 7 8 9 10 11 12 13 14 15 16 17
681
FTUS46 KSGX 272103 AAB
TAFONT
TAF AMD
KONT 272103Z 2721/2824 23011KT 4SM RA BR BKN023 BKN040
      TEMPO 2721/2724 2SM RA BR BKN015
     FM280000 VRB04KT 5SM -SHRA BR SCT015 BKN025
     FM280500 VRB05KT P6SM BKN020
     FM281800 VRB06KT P6SM SCT030=

USA.gov is the U.S. government's official web portal to all federal, state and local government web resources and services.